createdAt,value
2018-09-08T00:03:47.498Z,4.77
2018-09-08T00:06:51.431Z,5.43
2018-09-08T00:09:20.242Z,4.80
2018-09-08T00:11:49.059Z,4.60
2018-09-08T00:14:23.800Z,4.93
2018-09-08T00:16:57.755Z,5.60
2018-09-08T00:19:32.024Z,5.60
2018-09-08T00:22:05.856Z,5.17
2018-09-08T00:24:39.760Z,4.80
2018-09-08T00:27:07.619Z,4.80
2018-09-08T00:29:44.193Z,5.63
2018-09-08T00:32:20.568Z,5.87
2018-09-08T00:34:49.456Z,5.63
2018-09-08T00:37:20.197Z,4.90
2018-09-08T00:39:51.017Z,5.13
2018-09-08T00:42:20.204Z,5.90
2018-09-08T00:44:50.835Z,5.60
2018-09-08T00:47:19.731Z,5.67
2018-09-08T00:49:48.553Z,5.83
2018-09-08T00:52:17.468Z,5.90
2018-09-08T00:54:46.310Z,4.87
2018-09-08T00:57:15.283Z,5.57
2018-09-08T00:59:44.440Z,5.30
2018-09-08T01:02:13.228Z,5.57
2018-09-08T01:04:42.089Z,5.53
2018-09-08T01:07:16.239Z,6.10
2018-09-08T01:09:45.053Z,6.00
2018-09-08T01:12:13.861Z,6.30
2018-09-08T01:14:44.232Z,6.30
2018-09-08T01:17:13.157Z,6.97
2018-09-08T01:19:45.412Z,6.53
2018-09-08T01:22:14.520Z,6.70
2018-09-08T01:24:49.319Z,6.73
2018-09-08T01:27:18.108Z,6.27
2018-09-08T01:29:47.293Z,6.70
2018-09-08T01:32:20.063Z,6.00
2018-09-08T01:34:51.026Z,6.70
2018-09-08T01:37:20.169Z,6.43
2018-09-08T01:39:48.980Z,6.10
2018-09-08T01:42:18.737Z,6.10
2018-09-08T01:44:47.837Z,6.67
2018-09-08T01:47:16.663Z,6.43
2018-09-08T01:49:45.504Z,6.50
2018-09-08T01:52:14.653Z,6.10
2018-09-08T01:54:46.402Z,6.60
2018-09-08T01:57:15.228Z,6.30
2018-09-08T01:59:49.335Z,5.70
2018-09-08T02:02:18.213Z,6.40
2018-09-08T02:04:47.138Z,6.83
2018-09-08T02:07:16.312Z,6.53
2018-09-08T02:09:45.103Z,6.50
2018-09-08T02:12:13.895Z,5.50
2018-09-08T02:14:43.086Z,5.70
2018-09-08T02:17:11.925Z,6.13
2018-09-08T02:19:40.754Z,6.27
2018-09-08T02:22:09.967Z,7.00
2018-09-08T02:24:38.826Z,5.87
2018-09-08T02:27:07.672Z,7.20
2018-09-08T02:32:10.156Z,6.63
2018-09-08T02:34:39.035Z,5.73
2018-09-08T02:37:08.145Z,5.87
2018-09-08T02:39:36.959Z,6.27
2018-09-08T02:42:06.609Z,5.80
2018-09-08T02:44:35.730Z,6.10
2018-09-08T02:47:04.677Z,6.37
2018-09-08T02:50:41.985Z,5.60
2018-09-08T02:53:11.802Z,5.20
2018-09-08T02:55:39.433Z,5.43
2018-09-08T02:58:07.145Z,5.60
2018-09-08T03:00:34.934Z,4.80
2018-09-08T03:03:02.335Z,5.80
2018-09-08T03:05:29.981Z,5.30
2018-09-08T03:08:00.716Z,5.10
2018-09-08T03:10:28.127Z,4.73
2018-09-08T03:13:02.008Z,5.13
2018-09-08T03:15:29.393Z,5.10
2018-09-08T03:18:03.608Z,4.50
2018-09-08T03:20:31.284Z,5.27
2018-09-08T03:22:58.718Z,5.00
2018-09-08T03:25:26.258Z,5.70
2018-09-08T03:27:53.988Z,5.90
2018-09-08T03:30:29.428Z,5.20
2018-09-08T03:32:56.879Z,4.97
2018-09-08T03:35:24.288Z,5.00
2018-09-08T03:37:52.684Z,5.30
2018-09-08T03:40:20.358Z,5.20
2018-09-08T03:42:47.823Z,5.37
2018-09-08T03:45:15.270Z,5.13
2018-09-08T03:47:42.989Z,5.90
2018-09-08T03:50:10.404Z,4.60
2018-09-08T03:52:37.897Z,4.53
2018-09-08T03:55:05.589Z,5.20
2018-09-08T03:57:32.985Z,4.80
2018-09-08T04:02:40.242Z,5.20
2018-09-08T04:05:09.048Z,5.13
2018-09-08T04:07:37.860Z,5.00
2018-09-08T04:10:09.096Z,5.13
2018-09-08T04:12:37.923Z,4.80
2018-09-08T04:15:06.749Z,4.90
2018-09-08T04:20:15.418Z,5.50
2018-09-08T04:22:44.324Z,5.47
2018-09-08T04:25:13.156Z,5.07
2018-09-08T04:27:41.972Z,4.93
2018-09-08T04:30:11.053Z,4.60
2018-09-08T04:32:39.849Z,4.90
2018-09-08T04:35:08.691Z,5.10
2018-09-08T04:37:37.804Z,4.43
2018-09-08T04:40:06.785Z,5.10
2018-09-08T04:42:35.638Z,5.13
2018-09-08T04:45:04.923Z,4.60
2018-09-08T04:47:33.777Z,4.80
2018-09-08T04:50:04.423Z,4.57
2018-09-08T04:52:33.514Z,4.00
2018-09-08T04:55:02.346Z,4.70
2018-09-08T04:57:31.218Z,4.50
2018-09-08T05:00:00.343Z,5.17
2018-09-08T05:05:08.630Z,56.67
2018-09-08T05:07:37.483Z,5.00
2018-09-08T05:10:06.862Z,4.93
2018-09-08T05:12:42.056Z,4.70
2018-09-08T05:15:10.965Z,4.50
2018-09-08T05:17:43.050Z,5.33
2018-09-08T05:20:12.213Z,5.60
2018-09-08T05:22:42.262Z,6.50
2018-09-08T05:25:11.081Z,8.20
2018-09-08T05:27:40.175Z,11.10
2018-09-08T05:30:09.041Z,14.57
2018-09-08T05:32:37.908Z,15.63
2018-09-08T05:35:07.456Z,18.03
2018-09-08T05:37:42.304Z,16.10
2018-09-08T05:40:11.196Z,14.90
2018-09-08T05:42:46.470Z,13.03
2018-09-08T05:45:15.593Z,11.83
2018-09-08T05:47:44.403Z,12.60
2018-09-08T05:50:13.289Z,12.13
2018-09-08T05:52:42.448Z,13.40
2018-09-08T05:55:11.289Z,15.57
2018-09-08T05:57:40.120Z,13.30
2018-09-08T06:00:09.329Z,12.73
2018-09-08T06:02:38.160Z,15.40
2018-09-08T06:05:06.993Z,12.40
2018-09-08T06:07:36.607Z,10.47
2018-09-08T06:10:07.407Z,10.50
2018-09-08T06:12:36.248Z,9.30
2018-09-08T06:15:09.120Z,10.17
2018-09-08T06:17:38.029Z,8.67
2018-09-08T06:20:06.901Z,9.17
2018-09-08T06:22:37.920Z,8.37
2018-09-08T06:25:06.861Z,7.80
2018-09-08T06:27:35.740Z,6.50
2018-09-08T06:30:05.795Z,7.30
2018-09-08T06:32:34.689Z,6.43
2018-09-08T06:35:04.858Z,8.13
2018-09-08T06:37:37.941Z,7.30
2018-09-08T06:40:07.087Z,6.20
2018-09-08T06:42:37.694Z,7.00
2018-09-08T06:45:07.029Z,5.90
2018-09-08T06:47:37.653Z,5.70
2018-09-08T06:50:06.549Z,6.77
2018-09-08T06:52:40.655Z,4.80
2018-09-08T06:55:10.385Z,5.03
2018-09-08T06:57:39.357Z,4.50
2018-09-08T07:02:49.364Z,5.17
2018-09-08T07:05:18.535Z,4.90
2018-09-08T07:07:47.609Z,4.70
2018-09-08T07:10:17.308Z,4.37
2018-09-08T07:12:50.993Z,4.10
2018-09-08T07:15:19.973Z,4.73
2018-09-08T07:17:54.261Z,3.97
2018-09-08T07:20:23.285Z,4.50
2018-09-08T07:22:58.554Z,4.50
2018-09-08T07:25:27.457Z,7.47
2018-09-08T07:28:07.320Z,4.40
2018-09-08T07:33:16.056Z,3.93
2018-09-08T07:35:45.297Z,3.20
2018-09-08T07:38:14.394Z,3.90
2018-09-08T07:40:43.315Z,3.63
2018-09-08T07:43:12.463Z,3.23
2018-09-08T07:45:41.349Z,2.53
2018-09-08T07:48:10.734Z,3.30
2018-09-08T07:50:40.879Z,3.20
2018-09-08T07:53:09.735Z,2.90
2018-09-08T07:55:38.676Z,2.27
2018-09-08T07:58:07.881Z,2.73
2018-09-08T08:00:39.836Z,2.43
2018-09-08T08:03:08.857Z,2.73
2018-09-08T08:05:42.762Z,2.27
2018-09-08T08:08:11.804Z,2.63
2018-09-08T08:10:40.985Z,1.80
2018-09-08T08:13:11.152Z,3.00
2018-09-08T08:15:40.136Z,2.00
2018-09-08T08:18:14.820Z,1.87
2018-09-08T08:20:43.799Z,2.00
2018-09-08T08:23:12.693Z,2.00
2018-09-08T08:25:42.003Z,1.60
2018-09-08T08:28:11.157Z,1.93
2018-09-08T08:30:40.115Z,1.70
2018-09-08T08:33:09.399Z,2.00
2018-09-08T08:35:44.732Z,1.70
2018-09-08T08:38:13.601Z,1.60
2018-09-08T08:40:42.921Z,1.43
2018-09-08T08:43:11.922Z,1.40
2018-09-08T08:45:41.021Z,1.70
2018-09-08T08:48:13.240Z,1.57
2018-09-08T08:50:52.941Z,1.23
2018-09-08T08:53:34.110Z,1.33
2018-09-08T08:56:05.342Z,1.30
2018-09-08T08:58:34.237Z,1.63
2018-09-08T09:01:03.433Z,1.30
2018-09-08T09:03:32.446Z,2.33
2018-09-08T09:06:03.791Z,1.23
2018-09-08T09:08:33.570Z,6.57
2018-09-08T09:11:01.988Z,1.37
2018-09-08T09:13:31.172Z,1.57
2018-09-08T09:16:00.378Z,1.63
2018-09-08T09:18:40.605Z,1.90
2018-09-08T09:21:19.954Z,1.90
2018-09-08T09:24:58.734Z,2.07
2018-09-08T09:27:28.264Z,1.53
2018-09-08T09:29:57.429Z,1.40
2018-09-08T09:32:26.357Z,1.80
2018-09-08T09:34:55.653Z,1.70
2018-09-08T09:37:24.626Z,1.60
2018-09-08T09:40:04.047Z,1.40
2018-09-08T09:42:34.242Z,1.30
2018-09-08T09:45:03.203Z,1.10
2018-09-08T09:47:32.175Z,1.40
2018-09-08T09:50:06.580Z,3.70
2018-09-08T09:52:35.431Z,1.67
2018-09-08T09:55:04.357Z,1.37
2018-09-08T09:57:33.560Z,1.30
2018-09-08T10:00:03.243Z,1.57
2018-09-08T10:02:39.012Z,1.57
2018-09-08T10:05:11.836Z,1.17
2018-09-08T10:07:40.710Z,1.30
2018-09-08T10:10:17.807Z,1.60
2018-09-08T10:12:51.430Z,1.50
2018-09-08T10:15:20.497Z,1.40
2018-09-08T10:17:54.052Z,1.53
2018-09-08T10:20:23.810Z,1.20
2018-09-08T10:22:59.774Z,1.57
2018-09-08T10:25:28.668Z,1.63
2018-09-08T10:27:57.603Z,1.70
2018-09-08T10:30:26.515Z,1.33
2018-09-08T10:32:55.373Z,1.87
2018-09-08T10:35:24.570Z,1.60
2018-09-08T10:37:53.548Z,1.07
2018-09-08T10:40:22.486Z,1.30
2018-09-08T10:45:29.917Z,1.23
2018-09-08T10:47:59.192Z,1.10
2018-09-08T10:50:35.200Z,1.50
2018-09-08T10:53:04.143Z,0.90
2018-09-08T10:55:37.939Z,0.97
2018-09-08T10:58:06.868Z,1.00
2018-09-08T11:00:35.962Z,1.17
2018-09-08T11:03:08.664Z,1.20
2018-09-08T11:05:38.054Z,1.10
2018-09-08T11:08:06.923Z,1.20
2018-09-08T11:10:40.919Z,0.77
2018-09-08T11:13:10.707Z,0.97
2018-09-08T11:15:41.576Z,1.00
2018-09-08T11:18:10.385Z,0.93
2018-09-08T11:20:39.322Z,1.33
2018-09-08T11:23:08.945Z,0.93
2018-09-08T11:25:54.840Z,1.20
2018-09-08T11:31:01.736Z,0.83
2018-09-08T11:33:30.708Z,1.20
2018-09-08T11:36:03.171Z,1.60
2018-09-08T11:38:32.272Z,1.10
2018-09-08T11:41:01.745Z,1.10
2018-09-08T11:43:31.244Z,1.17
2018-09-08T11:46:05.029Z,1.17
2018-09-08T11:48:34.174Z,1.20
2018-09-08T11:51:03.338Z,0.93
2018-09-08T11:53:32.738Z,1.40
2018-09-08T11:56:02.729Z,1.20
2018-09-08T11:58:31.817Z,1.30
2018-09-08T12:01:00.747Z,2.40
2018-09-08T12:03:33.143Z,5.90
2018-09-08T12:06:03.188Z,4.97
2018-09-08T12:08:32.373Z,3.20
2018-09-08T12:11:01.543Z,2.33
2018-09-08T12:13:30.793Z,1.90
2018-09-08T12:16:04.458Z,1.30
2018-09-08T12:18:33.442Z,2.20
2018-09-08T12:21:02.711Z,1.53
2018-09-08T12:23:33.808Z,1.27
2018-09-08T12:26:03.420Z,1.23
2018-09-08T12:28:33.020Z,1.23
2018-09-08T12:31:02.106Z,0.90
2018-09-08T12:33:31.365Z,1.00
2018-09-08T12:36:05.169Z,1.40
2018-09-08T12:41:16.500Z,1.10
2018-09-08T12:43:45.532Z,1.23
2018-09-08T12:46:14.477Z,0.70
2018-09-08T12:48:44.275Z,1.10
2018-09-08T12:51:13.299Z,1.10
2018-09-08T12:53:46.126Z,0.90
2018-09-08T12:56:21.621Z,1.10
2018-09-08T12:58:50.928Z,1.00
2018-09-08T13:01:19.998Z,1.30
2018-09-08T13:03:49.034Z,1.33
2018-09-08T13:06:18.608Z,1.17
2018-09-08T13:08:48.054Z,2.23
2018-09-08T13:11:16.913Z,1.30
2018-09-08T13:13:45.811Z,1.10
2018-09-08T13:16:14.959Z,1.00
2018-09-08T13:18:46.109Z,1.10
2018-09-08T13:21:14.991Z,1.00
2018-09-08T13:23:44.183Z,1.00
2018-09-08T13:26:32.439Z,1.00
2018-09-08T13:29:01.843Z,0.80
2018-09-08T13:31:36.771Z,0.70
2018-09-08T13:34:07.201Z,1.57
2018-09-08T13:36:36.085Z,1.10
2018-09-08T13:39:06.235Z,1.03
2018-09-08T13:41:35.368Z,0.80
2018-09-08T13:44:05.374Z,1.07
2018-09-08T13:46:34.335Z,1.00
2018-09-08T13:49:14.324Z,1.00
2018-09-08T13:51:43.782Z,1.07
2018-09-08T13:54:13.027Z,0.97
2018-09-08T13:56:46.054Z,1.00
2018-09-08T13:59:15.054Z,1.10
2018-09-08T14:01:43.933Z,0.93
2018-09-08T14:04:13.286Z,1.40
2018-09-08T14:06:42.144Z,0.90
2018-09-08T14:09:11.061Z,0.93
2018-09-08T14:11:41.090Z,0.80
2018-09-08T14:14:09.932Z,0.80
2018-09-08T14:16:38.969Z,0.90
2018-09-08T14:19:08.333Z,0.80
2018-09-08T14:21:37.212Z,0.87
2018-09-08T14:24:06.571Z,0.80
2018-09-08T14:26:36.774Z,1.10
2018-09-08T14:29:05.641Z,1.00
2018-09-08T14:31:34.689Z,1.17
2018-09-08T14:34:14.968Z,1.47
2018-09-08T14:36:43.822Z,0.83
2018-09-08T14:39:13.080Z,1.10
2018-09-08T14:41:47.453Z,0.90
2018-09-08T14:44:16.682Z,2.00
2018-09-08T14:46:47.072Z,0.90
2018-09-08T14:49:15.964Z,1.13
2018-09-08T14:51:48.076Z,1.17
2018-09-08T14:54:17.744Z,1.40
2018-09-08T14:56:47.049Z,1.00
2018-09-08T14:59:15.871Z,1.10
2018-09-08T15:01:46.065Z,0.90
2018-09-08T15:04:15.142Z,1.00
2018-09-08T15:06:44.165Z,1.30
2018-09-08T15:09:14.313Z,1.20
2018-09-08T15:11:44.068Z,1.80
2018-09-08T15:14:14.001Z,1.83
2018-09-08T15:16:42.899Z,1.60
2018-09-08T15:19:12.655Z,1.47
2018-09-08T15:21:41.557Z,1.10
2018-09-08T15:24:16.918Z,0.90
2018-09-08T15:26:45.990Z,1.03
2018-09-08T15:29:14.852Z,0.80
2018-09-08T15:31:44.877Z,1.30
2018-09-08T15:34:13.824Z,3.73
2018-09-08T15:36:42.869Z,1.10
2018-09-08T15:39:16.250Z,0.90
2018-09-08T15:41:45.329Z,1.83
2018-09-08T15:44:18.823Z,1.23
2018-09-08T15:46:48.046Z,1.00
2018-09-08T15:49:16.917Z,1.00
2018-09-08T15:51:46.191Z,0.90
2018-09-08T15:54:15.884Z,1.10
2018-09-08T15:56:44.915Z,1.13
2018-09-08T15:59:13.950Z,1.00
2018-09-08T16:01:43.310Z,0.90
2018-09-08T16:04:13.129Z,1.20
2018-09-08T16:06:47.475Z,1.30
2018-09-08T16:09:21.588Z,1.00
2018-09-08T16:11:50.629Z,0.90
2018-09-08T16:14:20.368Z,1.30
2018-09-08T16:19:29.271Z,1.37
2018-09-08T16:21:58.132Z,1.03
2018-09-08T16:24:26.996Z,1.00
2018-09-08T16:26:59.287Z,1.20
2018-09-08T16:32:05.554Z,1.53
2018-09-08T16:34:36.644Z,0.90
2018-09-08T16:37:09.566Z,1.07
2018-09-08T16:39:38.481Z,1.20
2018-09-08T16:42:07.849Z,1.03
2018-09-08T16:44:40.564Z,1.10
2018-09-08T16:47:09.488Z,1.30
2018-09-08T16:49:38.721Z,1.10
2018-09-08T16:52:07.778Z,1.20
2018-09-08T16:54:36.624Z,1.07
2018-09-08T16:57:10.853Z,1.00
2018-09-08T16:59:39.944Z,1.20
2018-09-08T17:02:13.137Z,1.07
2018-09-08T17:04:42.074Z,1.07
2018-09-08T17:07:10.987Z,1.10
2018-09-08T17:09:40.243Z,1.07
2018-09-08T17:12:09.396Z,1.37
2018-09-08T17:14:38.502Z,1.10
2018-09-08T17:17:07.774Z,1.37
2018-09-08T17:19:37.696Z,1.87
2018-09-08T17:22:06.787Z,3.50
2018-09-08T17:24:35.982Z,1.33
2018-09-08T17:27:04.944Z,2.40
2018-09-08T17:29:33.946Z,2.30
2018-09-08T17:32:04.229Z,1.33
2018-09-08T17:34:33.107Z,1.17
2018-09-08T17:37:02.198Z,1.50
2018-09-08T17:39:32.575Z,2.00
2018-09-08T17:42:01.524Z,1.73
2018-09-08T17:44:30.446Z,1.20
2018-09-08T17:47:14.614Z,1.50
2018-09-08T17:49:46.714Z,1.27
2018-09-08T17:52:16.223Z,1.60
2018-09-08T17:54:45.156Z,1.10
2018-09-08T17:57:20.919Z,1.27
2018-09-08T18:02:36.077Z,1.10
2018-09-08T18:05:06.409Z,1.53
2018-09-08T18:07:35.491Z,1.53
2018-09-08T18:10:05.479Z,1.63
2018-09-08T18:12:35.356Z,1.17
2018-09-08T18:15:04.335Z,1.60
2018-09-08T18:17:39.068Z,2.03
2018-09-08T18:20:08.287Z,2.03
2018-09-08T18:22:37.716Z,1.70
2018-09-08T18:25:06.826Z,2.13
2018-09-08T18:27:36.975Z,1.57
2018-09-08T18:30:06.153Z,1.73
2018-09-08T18:35:10.741Z,1.80
2018-09-08T18:37:40.255Z,2.23
2018-09-08T18:40:09.216Z,2.10
2018-09-08T18:42:39.032Z,2.07
2018-09-08T18:45:08.090Z,1.60
2018-09-08T18:47:37.617Z,2.30
2018-09-08T18:50:13.298Z,1.73
2018-09-08T18:52:42.188Z,2.00
2018-09-08T18:55:11.121Z,1.70
2018-09-08T19:00:19.857Z,1.70
2018-09-08T19:02:48.801Z,1.97
2018-09-08T19:05:17.762Z,3.30
2018-09-08T19:08:09.287Z,2.10
2018-09-08T19:10:38.608Z,2.00
2018-09-08T19:13:11.823Z,2.43
2018-09-08T19:15:40.910Z,3.20
2018-09-08T19:18:10.231Z,2.00
2018-09-08T19:20:40.568Z,1.90
2018-09-08T19:23:09.704Z,2.17
2018-09-08T19:25:39.052Z,2.13
2018-09-08T19:28:09.596Z,2.23
2018-09-08T19:30:38.553Z,2.73
2018-09-08T19:33:11.420Z,4.10
2018-09-08T19:35:40.696Z,2.93
2018-09-08T19:38:09.695Z,3.00
2018-09-08T19:40:44.315Z,2.30
2018-09-08T19:43:18.465Z,3.23
2018-09-08T19:45:47.709Z,3.50
2018-09-08T19:48:17.932Z,3.53
2018-09-08T19:50:47.804Z,3.83
2018-09-08T19:53:22.076Z,4.00
2018-09-08T20:01:58.559Z,3.60
2018-09-08T20:04:30.316Z,3.47
2018-09-08T20:06:59.660Z,2.90
2018-09-08T20:29:37.136Z,21.70
2018-09-08T20:32:15.100Z,22.30
2018-09-08T20:34:47.334Z,29.20
2018-09-08T20:37:19.701Z,25.33
2018-09-08T20:39:50.622Z,26.93
2018-09-08T20:42:21.143Z,26.67
2018-09-08T20:47:55.558Z,21.50
2018-09-08T20:50:42.363Z,16.57
2018-09-08T20:53:40.214Z,15.10
2018-09-08T20:56:39.895Z,14.10
2018-09-08T20:59:25.792Z,11.07
2018-09-08T21:13:45.684Z,4.50
2018-09-08T21:45:24.974Z,4.63
2018-09-08T21:48:07.632Z,4.77
2018-09-08T21:50:43.270Z,5.00
2018-09-08T21:53:13.044Z,5.60
2018-09-08T22:01:40.800Z,6.77
2018-09-08T22:07:05.636Z,7.80
2018-09-08T22:09:41.478Z,6.87
2018-09-08T22:12:16.617Z,7.17
2018-09-08T22:14:51.130Z,7.70
2018-09-08T22:17:23.035Z,7.57
2018-09-08T22:19:52.247Z,6.23
2018-09-08T22:22:23.697Z,6.83
2018-09-08T22:24:52.807Z,7.00
2018-09-08T22:27:23.737Z,5.70
2018-09-08T22:29:57.440Z,6.70
2018-09-08T22:32:31.361Z,6.13
2018-09-08T22:35:00.678Z,5.83
2018-09-08T22:37:33.161Z,5.30
2018-09-08T22:40:13.479Z,4.97
2018-09-08T22:42:44.180Z,5.40
2018-09-08T22:47:55.107Z,6.00
2018-09-08T22:50:25.875Z,5.40
2018-09-08T22:52:56.187Z,4.60
2018-09-08T22:55:25.490Z,6.63
2018-09-08T22:58:00.659Z,8.50
2018-09-08T23:00:29.855Z,9.77
2018-09-08T23:02:59.153Z,7.90
2018-09-08T23:05:28.675Z,8.27
2018-09-08T23:07:57.725Z,8.53
2018-09-08T23:10:26.816Z,8.23
2018-09-08T23:12:56.361Z,8.10
2018-09-08T23:15:25.878Z,8.00
2018-09-08T23:17:54.790Z,7.23
2018-09-08T23:20:24.100Z,6.70
2018-09-08T23:22:52.978Z,6.00
2018-09-08T23:25:21.811Z,6.17
2018-09-08T23:27:52.121Z,6.10
2018-09-08T23:30:21.027Z,4.57
2018-09-08T23:32:57.720Z,5.20
2018-09-08T23:35:27.023Z,6.23
2018-09-08T23:37:56.029Z,5.93
2018-09-08T23:40:24.943Z,5.93
2018-09-08T23:42:54.320Z,6.27
2018-09-08T23:45:23.231Z,6.37
2018-09-08T23:47:52.095Z,6.10
2018-09-08T23:50:21.525Z,5.73
2018-09-08T23:52:50.406Z,5.97
2018-09-08T23:55:19.329Z,5.93
2018-09-08T23:57:48.781Z,5.77
